sensor_id;sensor_type;location;lat;lon;timestamp;P1;durP1;ratioP1;P2;durP2;ratioP2
15944;SDS011;30172;48.832;8.732;2023-04-24T00:01:43;0.90;;;0.90;;
15944;SDS011;30172;48.832;8.732;2023-04-24T00:04:08;3.43;;;1.00;;
15944;SDS011;30172;48.832;8.732;2023-04-24T00:06:35;1.57;;;0.77;;
15944;SDS011;30172;48.832;8.732;2023-04-24T00:09:02;2.33;;;1.00;;
15944;SDS011;30172;48.832;8.732;2023-04-24T00:11:30;2.10;;;0.93;;
15944;SDS011;30172;48.832;8.732;2023-04-24T00:13:56;4.73;;;1.07;;
15944;SDS011;30172;48.832;8.732;2023-04-24T00:16:23;1.07;;;0.93;;
15944;SDS011;30172;48.832;8.732;2023-04-24T00:18:49;2.93;;;1.00;;
15944;SDS011;30172;48.832;8.732;2023-04-24T00:21:15;1.20;;;0.93;;
15944;SDS011;30172;48.832;8.732;2023-04-24T00:23:42;1.20;;;1.03;;
15944;SDS011;30172;48.832;8.732;2023-04-24T00:26:08;1.93;;;0.80;;
15944;SDS011;30172;48.832;8.732;2023-04-24T00:28:34;1.33;;;0.70;;
15944;SDS011;30172;48.832;8.732;2023-04-24T00:30:59;1.63;;;0.80;;
15944;SDS011;30172;48.832;8.732;2023-04-24T00:33:25;1.63;;;1.00;;
15944;SDS011;30172;48.832;8.732;2023-04-24T00:35:50;2.13;;;0.93;;
15944;SDS011;30172;48.832;8.732;2023-04-24T00:38:18;0.80;;;0.80;;
15944;SDS011;30172;48.832;8.732;2023-04-24T00:40:43;2.03;;;0.80;;
15944;SDS011;30172;48.832;8.732;2023-04-24T00:43:09;4.03;;;0.93;;
15944;SDS011;30172;48.832;8.732;2023-04-24T00:45:34;1.30;;;0.90;;
15944;SDS011;30172;48.832;8.732;2023-04-24T00:48:00;1.63;;;0.70;;
15944;SDS011;30172;48.832;8.732;2023-04-24T00:50:26;2.73;;;1.00;;
15944;SDS011;30172;48.832;8.732;2023-04-24T00:52:52;4.13;;;0.93;;
15944;SDS011;30172;48.832;8.732;2023-04-24T00:55:17;1.37;;;0.93;;
15944;SDS011;30172;48.832;8.732;2023-04-24T00:57:43;1.80;;;0.83;;
15944;SDS011;30172;48.832;8.732;2023-04-24T01:00:09;1.23;;;1.00;;
15944;SDS011;30172;48.832;8.732;2023-04-24T01:02:38;1.37;;;1.10;;
15944;SDS011;30172;48.832;8.732;2023-04-24T01:05:05;1.10;;;1.00;;
15944;SDS011;30172;48.832;8.732;2023-04-24T01:07:32;4.53;;;1.10;;
15944;SDS011;30172;48.832;8.732;2023-04-24T01:09:58;4.07;;;1.07;;
15944;SDS011;30172;48.832;8.732;2023-04-24T01:12:23;1.80;;;0.87;;
15944;SDS011;30172;48.832;8.732;2023-04-24T01:14:49;2.63;;;1.00;;
15944;SDS011;30172;48.832;8.732;2023-04-24T01:17:14;0.93;;;0.80;;
15944;SDS011;30172;48.832;8.732;2023-04-24T01:19:40;2.43;;;1.00;;
15944;SDS011;30172;48.832;8.732;2023-04-24T01:22:10;2.07;;;0.77;;
15944;SDS011;30172;48.832;8.732;2023-04-24T01:24:36;1.70;;;0.90;;
15944;SDS011;30172;48.832;8.732;2023-04-24T01:27:02;2.60;;;0.97;;
15944;SDS011;30172;48.832;8.732;2023-04-24T01:29:27;1.63;;;1.03;;
15944;SDS011;30172;48.832;8.732;2023-04-24T01:31:53;2.20;;;1.33;;
15944;SDS011;30172;48.832;8.732;2023-04-24T01:34:18;5.20;;;1.80;;
15944;SDS011;30172;48.832;8.732;2023-04-24T01:36:45;0.77;;;0.77;;
15944;SDS011;30172;48.832;8.732;2023-04-24T01:39:11;0.73;;;0.67;;
15944;SDS011;30172;48.832;8.732;2023-04-24T01:41:37;1.13;;;0.87;;
15944;SDS011;30172;48.832;8.732;2023-04-24T01:44:02;1.37;;;0.80;;
15944;SDS011;30172;48.832;8.732;2023-04-24T01:46:27;2.53;;;1.10;;
15944;SDS011;30172;48.832;8.732;2023-04-24T01:48:53;2.67;;;1.17;;
15944;SDS011;30172;48.832;8.732;2023-04-24T01:51:18;1.80;;;1.13;;
15944;SDS011;30172;48.832;8.732;2023-04-24T01:53:44;0.80;;;0.80;;
15944;SDS011;30172;48.832;8.732;2023-04-24T01:56:09;2.77;;;0.80;;
15944;SDS011;30172;48.832;8.732;2023-04-24T01:58:35;1.73;;;0.97;;
15944;SDS011;30172;48.832;8.732;2023-04-24T02:01:00;1.27;;;1.00;;
15944;SDS011;30172;48.832;8.732;2023-04-24T02:03:26;1.50;;;1.23;;
15944;SDS011;30172;48.832;8.732;2023-04-24T02:05:51;2.60;;;1.00;;
15944;SDS011;30172;48.832;8.732;2023-04-24T02:08:16;1.33;;;0.90;;
15944;SDS011;30172;48.832;8.732;2023-04-24T02:10:42;2.13;;;1.30;;
15944;SDS011;30172;48.832;8.732;2023-04-24T02:13:07;2.23;;;0.90;;
15944;SDS011;30172;48.832;8.732;2023-04-24T02:15:32;1.97;;;0.90;;
15944;SDS011;30172;48.832;8.732;2023-04-24T02:18:11;0.60;;;0.60;;
15944;SDS011;30172;48.832;8.732;2023-04-24T02:21:28;2.30;;;1.07;;
15944;SDS011;30172;48.832;8.732;2023-04-24T02:24:51;1.80;;;0.90;;
15944;SDS011;30172;48.832;8.732;2023-04-24T03:19:01;4.00;;;1.37;;
15944;SDS011;30172;48.832;8.732;2023-04-24T03:22:01;1.30;;;0.87;;
15944;SDS011;30172;48.832;8.732;2023-04-24T03:32:31;1.83;;;1.37;;
15944;SDS011;30172;48.832;8.732;2023-04-24T03:35:02;2.47;;;1.40;;
15944;SDS011;30172;48.832;8.732;2023-04-24T03:41:03;2.73;;;1.40;;
15944;SDS011;30172;48.832;8.732;2023-04-24T04:14:19;1.23;;;1.00;;
15944;SDS011;30172;48.832;8.732;2023-04-24T04:16:44;1.30;;;1.20;;
15944;SDS011;30172;48.832;8.732;2023-04-24T04:19:10;1.93;;;1.20;;
15944;SDS011;30172;48.832;8.732;2023-04-24T04:21:35;1.70;;;1.30;;
15944;SDS011;30172;48.832;8.732;2023-04-24T04:24:01;2.90;;;1.20;;
15944;SDS011;30172;48.832;8.732;2023-04-24T04:26:26;1.33;;;1.20;;
15944;SDS011;30172;48.832;8.732;2023-04-24T04:28:52;4.67;;;1.40;;
15944;SDS011;30172;48.832;8.732;2023-04-24T04:31:18;1.40;;;1.30;;
15944;SDS011;30172;48.832;8.732;2023-04-24T04:33:44;2.40;;;1.83;;
15944;SDS011;30172;48.832;8.732;2023-04-24T04:36:10;1.43;;;1.33;;
15944;SDS011;30172;48.832;8.732;2023-04-24T04:38:35;2.27;;;1.60;;
15944;SDS011;30172;48.832;8.732;2023-04-24T04:41:01;2.20;;;1.47;;
15944;SDS011;30172;48.832;8.732;2023-04-24T04:43:27;5.13;;;2.00;;
15944;SDS011;30172;48.832;8.732;2023-04-24T04:45:53;2.63;;;1.80;;
15944;SDS011;30172;48.832;8.732;2023-04-24T04:48:19;2.40;;;1.83;;
15944;SDS011;30172;48.832;8.732;2023-04-24T04:50:44;3.00;;;2.20;;
15944;SDS011;30172;48.832;8.732;2023-04-24T04:53:10;1.87;;;1.70;;
15944;SDS011;30172;48.832;8.732;2023-04-24T04:55:35;2.20;;;2.00;;
15944;SDS011;30172;48.832;8.732;2023-04-24T04:58:01;2.03;;;1.90;;
15944;SDS011;30172;48.832;8.732;2023-04-24T05:00:26;2.47;;;2.27;;
15944;SDS011;30172;48.832;8.732;2023-04-24T05:02:53;4.30;;;2.20;;
15944;SDS011;30172;48.832;8.732;2023-04-24T05:05:19;2.50;;;2.00;;
15944;SDS011;30172;48.832;8.732;2023-04-24T05:07:44;2.43;;;2.20;;
15944;SDS011;30172;48.832;8.732;2023-04-24T05:10:10;3.27;;;2.37;;
15944;SDS011;30172;48.832;8.732;2023-04-24T05:12:35;2.87;;;2.67;;
15944;SDS011;30172;48.832;8.732;2023-04-24T05:15:00;3.33;;;3.03;;
15944;SDS011;30172;48.832;8.732;2023-04-24T05:17:26;3.17;;;2.67;;
15944;SDS011;30172;48.832;8.732;2023-04-24T05:19:51;2.70;;;2.50;;
15944;SDS011;30172;48.832;8.732;2023-04-24T05:22:16;2.83;;;2.53;;
15944;SDS011;30172;48.832;8.732;2023-04-24T05:24:43;2.63;;;2.43;;
15944;SDS011;30172;48.832;8.732;2023-04-24T05:27:09;5.33;;;2.87;;
15944;SDS011;30172;48.832;8.732;2023-04-24T05:29:34;2.93;;;2.53;;
15944;SDS011;30172;48.832;8.732;2023-04-24T05:32:08;5.17;;;2.47;;
15944;SDS011;30172;48.832;8.732;2023-04-24T09:06:28;5.13;;;1.87;;
15944;SDS011;30172;48.832;8.732;2023-04-24T09:15:41;2.40;;;1.87;;
15944;SDS011;30172;48.832;8.732;2023-04-24T09:22:29;3.53;;;1.70;;
15944;SDS011;30172;48.832;8.732;2023-04-24T09:28:55;2.77;;;1.67;;
15944;SDS011;30172;48.832;8.732;2023-04-24T09:39:14;1.60;;;1.50;;
15944;SDS011;30172;48.832;8.732;2023-04-24T09:42:25;3.87;;;1.70;;
15944;SDS011;30172;48.832;8.732;2023-04-24T10:18:05;3.77;;;1.97;;
15944;SDS011;30172;48.832;8.732;2023-04-24T10:21:15;2.83;;;1.73;;
15944;SDS011;30172;48.832;8.732;2023-04-24T10:24:13;2.30;;;1.77;;
15944;SDS011;30172;48.832;8.732;2023-04-24T10:33:29;3.67;;;1.77;;
15944;SDS011;30172;48.832;8.732;2023-04-24T10:36:02;3.70;;;2.27;;
15944;SDS011;30172;48.832;8.732;2023-04-24T10:38:30;2.30;;;1.87;;
15944;SDS011;30172;48.832;8.732;2023-04-24T10:41:13;2.20;;;1.93;;
15944;SDS011;30172;48.832;8.732;2023-04-24T10:44:16;3.10;;;1.63;;
15944;SDS011;30172;48.832;8.732;2023-04-24T10:50:06;3.07;;;1.83;;
15944;SDS011;30172;48.832;8.732;2023-04-24T10:53:04;2.13;;;1.93;;
15944;SDS011;30172;48.832;8.732;2023-04-24T10:55:57;2.73;;;2.40;;
15944;SDS011;30172;48.832;8.732;2023-04-24T10:58:41;4.73;;;1.80;;
15944;SDS011;30172;48.832;8.732;2023-04-24T11:01:37;1.70;;;1.60;;
15944;SDS011;30172;48.832;8.732;2023-04-24T11:07:10;2.67;;;1.83;;
15944;SDS011;30172;48.832;8.732;2023-04-24T11:09:58;2.80;;;1.90;;
15944;SDS011;30172;48.832;8.732;2023-04-24T11:12:41;4.17;;;1.93;;
15944;SDS011;30172;48.832;8.732;2023-04-24T11:31:51;3.67;;;1.90;;
15944;SDS011;30172;48.832;8.732;2023-04-24T11:40:43;2.33;;;1.93;;
15944;SDS011;30172;48.832;8.732;2023-04-24T11:47:42;1.60;;;1.50;;
15944;SDS011;30172;48.832;8.732;2023-04-24T12:12:36;2.30;;;2.10;;
15944;SDS011;30172;48.832;8.732;2023-04-24T12:15:33;2.10;;;2.00;;
15944;SDS011;30172;48.832;8.732;2023-04-24T12:22:13;2.53;;;1.80;;
15944;SDS011;30172;48.832;8.732;2023-04-24T12:27:30;2.90;;;1.80;;
15944;SDS011;30172;48.832;8.732;2023-04-24T12:29:57;1.83;;;1.63;;
15944;SDS011;30172;48.832;8.732;2023-04-24T12:32:23;5.00;;;2.00;;
15944;SDS011;30172;48.832;8.732;2023-04-24T12:34:50;2.70;;;2.50;;
15944;SDS011;30172;48.832;8.732;2023-04-24T12:37:16;2.50;;;2.20;;
15944;SDS011;30172;48.832;8.732;2023-04-24T12:42:32;3.07;;;2.77;;
15944;SDS011;30172;48.832;8.732;2023-04-24T12:44:59;3.20;;;2.80;;
15944;SDS011;30172;48.832;8.732;2023-04-24T12:47:25;3.53;;;2.90;;
15944;SDS011;30172;48.832;8.732;2023-04-24T12:49:51;4.53;;;3.30;;
15944;SDS011;30172;48.832;8.732;2023-04-24T12:52:17;3.73;;;3.43;;
15944;SDS011;30172;48.832;8.732;2023-04-24T12:54:44;4.73;;;3.40;;
15944;SDS011;30172;48.832;8.732;2023-04-24T12:57:10;4.70;;;2.97;;
15944;SDS011;30172;48.832;8.732;2023-04-24T12:59:35;3.40;;;3.00;;
15944;SDS011;30172;48.832;8.732;2023-04-24T13:02:01;4.07;;;3.03;;
15944;SDS011;30172;48.832;8.732;2023-04-24T13:04:26;4.10;;;3.30;;
15944;SDS011;30172;48.832;8.732;2023-04-24T13:06:51;2.87;;;2.63;;
15944;SDS011;30172;48.832;8.732;2023-04-24T13:45:07;3.37;;;2.33;;
15944;SDS011;30172;48.832;8.732;2023-04-24T13:47:33;3.00;;;2.67;;
15944;SDS011;30172;48.832;8.732;2023-04-24T13:49:58;3.63;;;2.40;;
15944;SDS011;30172;48.832;8.732;2023-04-24T13:52:26;2.83;;;2.53;;
15944;SDS011;30172;48.832;8.732;2023-04-24T14:11:23;2.97;;;2.70;;
15944;SDS011;30172;48.832;8.732;2023-04-24T14:53:56;3.27;;;2.83;;
15944;SDS011;30172;48.832;8.732;2023-04-24T14:56:54;2.83;;;2.40;;
15944;SDS011;30172;48.832;8.732;2023-04-24T14:59:48;2.60;;;2.17;;
15944;SDS011;30172;48.832;8.732;2023-04-24T15:02:47;2.97;;;2.60;;
15944;SDS011;30172;48.832;8.732;2023-04-24T15:05:46;2.83;;;2.33;;
15944;SDS011;30172;48.832;8.732;2023-04-24T15:11:46;2.57;;;2.37;;
15944;SDS011;30172;48.832;8.732;2023-04-24T15:14:59;2.97;;;2.40;;
15944;SDS011;30172;48.832;8.732;2023-04-24T15:18:31;2.27;;;2.00;;
15944;SDS011;30172;48.832;8.732;2023-04-24T15:21:23;2.53;;;2.00;;
15944;SDS011;30172;48.832;8.732;2023-04-24T15:23:48;4.00;;;2.37;;
15944;SDS011;30172;48.832;8.732;2023-04-24T15:26:19;2.70;;;1.87;;
15944;SDS011;30172;48.832;8.732;2023-04-24T17:19:54;2.27;;;2.07;;
15944;SDS011;30172;48.832;8.732;2023-04-24T17:22:20;6.00;;;2.80;;
15944;SDS011;30172;48.832;8.732;2023-04-24T17:24:45;2.73;;;2.10;;
15944;SDS011;30172;48.832;8.732;2023-04-24T17:27:10;3.30;;;2.50;;
15944;SDS011;30172;48.832;8.732;2023-04-24T17:29:36;4.40;;;2.40;;
15944;SDS011;30172;48.832;8.732;2023-04-24T17:32:04;2.93;;;2.63;;
15944;SDS011;30172;48.832;8.732;2023-04-24T17:34:29;6.13;;;3.77;;
15944;SDS011;30172;48.832;8.732;2023-04-24T17:36:55;5.80;;;3.93;;
15944;SDS011;30172;48.832;8.732;2023-04-24T17:39:23;4.73;;;3.40;;
15944;SDS011;30172;48.832;8.732;2023-04-24T17:41:48;4.00;;;2.90;;
15944;SDS011;30172;48.832;8.732;2023-04-24T17:44:16;3.50;;;3.20;;
15944;SDS011;30172;48.832;8.732;2023-04-24T17:46:45;3.17;;;2.80;;
15944;SDS011;30172;48.832;8.732;2023-04-24T17:49:12;3.47;;;2.30;;
15944;SDS011;30172;48.832;8.732;2023-04-24T17:51:44;4.10;;;2.57;;
15944;SDS011;30172;48.832;8.732;2023-04-24T17:54:22;4.77;;;3.87;;
15944;SDS011;30172;48.832;8.732;2023-04-24T18:46:25;3.27;;;2.93;;
15944;SDS011;30172;48.832;8.732;2023-04-24T18:49:13;4.17;;;3.37;;
15944;SDS011;30172;48.832;8.732;2023-04-24T18:51:55;3.37;;;3.00;;
15944;SDS011;30172;48.832;8.732;2023-04-24T18:57:06;3.60;;;2.73;;
15944;SDS011;30172;48.832;8.732;2023-04-24T18:59:35;4.73;;;2.70;;
15944;SDS011;30172;48.832;8.732;2023-04-24T19:02:03;2.80;;;2.30;;
15944;SDS011;30172;48.832;8.732;2023-04-24T19:04:39;5.43;;;2.77;;
15944;SDS011;30172;48.832;8.732;2023-04-24T19:07:07;5.07;;;2.80;;
15944;SDS011;30172;48.832;8.732;2023-04-24T19:09:38;7.90;;;5.00;;
15944;SDS011;30172;48.832;8.732;2023-04-24T19:12:10;4.57;;;2.70;;
15944;SDS011;30172;48.832;8.732;2023-04-24T19:14:38;2.53;;;2.33;;
15944;SDS011;30172;48.832;8.732;2023-04-24T19:17:03;3.47;;;2.60;;
15944;SDS011;30172;48.832;8.732;2023-04-24T19:19:40;3.40;;;2.47;;
15944;SDS011;30172;48.832;8.732;2023-04-24T19:22:08;3.20;;;2.13;;
15944;SDS011;30172;48.832;8.732;2023-04-24T19:24:36;4.90;;;2.77;;
15944;SDS011;30172;48.832;8.732;2023-04-24T19:27:01;3.87;;;2.50;;
15944;SDS011;30172;48.832;8.732;2023-04-24T19:29:27;2.67;;;2.43;;
15944;SDS011;30172;48.832;8.732;2023-04-24T20:18:43;2.83;;;2.60;;
15944;SDS011;30172;48.832;8.732;2023-04-24T22:55:25;3.23;;;2.90;;
15944;SDS011;30172;48.832;8.732;2023-04-24T22:58:36;7.70;;;3.07;;
15944;SDS011;30172;48.832;8.732;2023-04-24T23:45:38;4.27;;;3.70;;
